Terminal Aerodrome Forecast
Issued by NWS Grand Junction, CO

Home | Current Version | Previous Version | Text Only | Print | Product List | Glossary On
Versions: 1 2 3 4 5 6 7 8 9 10 11 12 13 14 15 16 17 18 19 20 21 22 23
000
FTUS45 KGJT 261142
TAFGJT
TAF
KGJT 261142Z 2612/2712 VRB04KT P6SM SCT070 OVC080
     FM262000 27005KT P6SM SCT080
     FM262300 28008KT P6SM VCSH OVC070
     FM270200 11008KT P6SM -SHRA OVC060
     FM270700 27007KT P6SM VCSH OVC050=

USA.gov is the U.S. government's official web portal to all federal, state and local government web resources and services.